Terminal Aerodrome Forecast
Issued by NWS Amarillo, TX

Home | Current Version | Previous Version | Text Only | Print | Product List | Glossary On
Versions: 1 2 3 4 5 6 7 8 9 10 11 12 13 14 15 16 17
000
FTUS44 KAMA 292340
TAFAMA
TAF
KAMA 292340Z 3000/3024 33014KT P6SM SCT025
     FM301200 35008KT P6SM SCT050 BKN250
     FM302100 33008KT P6SM BKN050=

USA.gov is the U.S. government's official web portal to all federal, state and local government web resources and services.